createdAt,value
2018-09-26T00:02:33.924Z,19.49
2018-09-26T00:05:03.820Z,19.49
2018-09-26T00:07:33.948Z,19.47
2018-09-26T00:10:03.698Z,19.45
2018-09-26T00:12:34.010Z,19.43
2018-09-26T00:15:04.194Z,19.42
2018-09-26T00:17:34.004Z,19.42
2018-09-26T00:20:03.888Z,19.40
2018-09-26T00:22:33.737Z,19.38
2018-09-26T00:25:03.293Z,19.37
2018-09-26T00:27:33.288Z,19.36
2018-09-26T00:30:03.227Z,19.36
2018-09-26T00:32:32.895Z,19.34
2018-09-26T00:35:02.549Z,19.32
2018-09-26T00:37:32.248Z,19.32
2018-09-26T00:40:01.708Z,19.31
2018-09-26T00:42:31.380Z,19.30
2018-09-26T00:45:01.437Z,19.27
2018-09-26T00:47:30.967Z,19.25
2018-09-26T00:50:00.667Z,19.25
2018-09-26T00:52:30.326Z,19.23
2018-09-26T00:55:00.096Z,19.21
2018-09-26T00:57:29.884Z,19.20
2018-09-26T00:59:59.558Z,19.19
2018-09-26T01:02:29.294Z,19.18
2018-09-26T01:04:59.021Z,19.18
2018-09-26T01:07:28.785Z,19.15
2018-09-26T01:09:58.912Z,19.13
2018-09-26T01:12:28.878Z,19.13
2018-09-26T01:14:58.351Z,19.12
2018-09-26T01:17:28.496Z,19.11
2018-09-26T01:19:58.099Z,19.09
2018-09-26T01:22:27.879Z,19.08
2018-09-26T01:24:57.415Z,19.06
2018-09-26T01:27:27.085Z,19.05
2018-09-26T01:29:56.671Z,19.04
2018-09-26T01:32:26.206Z,19.02
2018-09-26T01:34:55.811Z,19.01
2018-09-26T01:37:25.471Z,19.02
2018-09-26T01:39:55.215Z,19.00
2018-09-26T01:42:24.728Z,18.97
2018-09-26T01:44:54.376Z,18.96
2018-09-26T01:47:24.075Z,18.94
2018-09-26T01:49:53.707Z,18.94
2018-09-26T01:52:23.293Z,18.94
2018-09-26T01:54:53.015Z,18.92
2018-09-26T01:57:23.511Z,18.93
2018-09-26T01:59:53.371Z,18.91
2018-09-26T02:02:23.195Z,18.88
2018-09-26T02:04:53.300Z,18.90
2018-09-26T02:07:22.947Z,18.88
2018-09-26T02:09:52.655Z,18.86
2018-09-26T02:12:22.295Z,18.86
2018-09-26T02:14:51.798Z,18.84
2018-09-26T02:17:21.548Z,18.82
2018-09-26T02:19:51.217Z,18.83
2018-09-26T02:22:20.865Z,18.79
2018-09-26T02:24:50.548Z,18.81
2018-09-26T02:27:20.264Z,18.80
2018-09-26T02:29:49.871Z,18.79
2018-09-26T02:32:19.623Z,18.77
2018-09-26T02:34:49.295Z,18.78
2018-09-26T02:37:19.238Z,18.77
2018-09-26T02:39:48.846Z,18.74
2018-09-26T02:42:18.523Z,18.72
2018-09-26T02:44:48.965Z,18.72
2018-09-26T02:47:18.423Z,18.73
2018-09-26T02:49:47.947Z,18.70
2018-09-26T02:52:18.168Z,18.70
2018-09-26T02:54:57.911Z,18.69
2018-09-26T02:57:27.638Z,18.69
2018-09-26T02:59:57.446Z,18.67
2018-09-26T03:02:27.203Z,18.66
2018-09-26T03:04:56.867Z,18.67
2018-09-26T03:07:26.580Z,18.65
2018-09-26T03:09:56.713Z,18.63
2018-09-26T03:12:26.277Z,18.65
2018-09-26T03:14:57.667Z,18.63
2018-09-26T03:17:27.501Z,18.64
2018-09-26T03:19:57.328Z,18.59
2018-09-26T03:22:27.142Z,18.58
2018-09-26T03:24:56.758Z,18.59
2018-09-26T03:27:26.491Z,18.56
2018-09-26T03:29:56.754Z,18.59
2018-09-26T03:32:26.626Z,18.57
2018-09-26T03:34:56.552Z,18.55
2018-09-26T03:37:26.188Z,18.55
2018-09-26T03:39:55.900Z,18.55
2018-09-26T03:42:26.020Z,18.53
2018-09-26T03:44:55.782Z,18.52
2018-09-26T03:47:25.721Z,18.53
2018-09-26T03:49:55.468Z,18.51
2018-09-26T03:52:25.242Z,18.51
2018-09-26T03:54:54.974Z,18.49
2018-09-26T03:57:24.597Z,18.48
2018-09-26T03:59:54.212Z,18.48
2018-09-26T04:02:23.911Z,18.49
2018-09-26T04:04:53.565Z,18.49
2018-09-26T04:07:23.432Z,18.46
2018-09-26T04:09:53.433Z,18.46
2018-09-26T04:12:23.061Z,18.44
2018-09-26T04:17:28.721Z,18.43
2018-09-26T04:19:58.894Z,18.41
2018-09-26T04:22:28.726Z,18.40
2018-09-26T04:24:58.580Z,18.38
2018-09-26T04:27:28.290Z,18.38
2018-09-26T04:29:58.097Z,18.37
2018-09-26T04:32:28.108Z,18.36
2018-09-26T04:34:57.803Z,18.36
2018-09-26T04:37:27.490Z,18.39
2018-09-26T04:39:57.381Z,18.40
2018-09-26T04:42:27.551Z,18.56
2018-09-26T04:44:57.946Z,18.64
2018-09-26T04:47:27.657Z,18.68
2018-09-26T04:49:57.394Z,18.74
2018-09-26T04:52:27.602Z,18.79
2018-09-26T04:54:57.782Z,18.84
2018-09-26T04:57:27.722Z,18.82
2018-09-26T04:59:57.718Z,18.91
2018-09-26T05:02:27.498Z,18.96
2018-09-26T05:04:58.014Z,18.97
2018-09-26T05:07:27.666Z,19.00
2018-09-26T05:09:57.609Z,19.08
2018-09-26T05:12:27.300Z,19.14
2018-09-26T05:14:57.521Z,19.15
2018-09-26T05:17:27.026Z,19.16
2018-09-26T05:19:57.779Z,19.22
2018-09-26T05:22:29.178Z,19.31
2018-09-26T05:25:00.218Z,19.37
2018-09-26T05:27:33.747Z,19.40
2018-09-26T05:30:04.519Z,19.42
2018-09-26T05:32:35.226Z,19.43
2018-09-26T05:35:04.958Z,19.44
2018-09-26T05:37:34.943Z,19.48
2018-09-26T05:42:28.649Z,19.50
2018-09-26T05:44:58.622Z,19.47
2018-09-26T05:47:28.495Z,19.50
2018-09-26T05:49:58.586Z,19.52
2018-09-26T05:52:28.317Z,19.54
2018-09-26T05:54:58.970Z,19.54
2018-09-26T05:57:28.624Z,19.57
2018-09-26T05:59:58.316Z,19.64
2018-09-26T06:02:27.839Z,19.70
2018-09-26T06:04:57.946Z,19.65
2018-09-26T06:07:27.677Z,19.71
2018-09-26T06:09:57.316Z,19.78
2018-09-26T06:12:28.762Z,19.79
2018-09-26T06:14:58.717Z,19.84
2018-09-26T06:17:28.433Z,19.82
2018-09-26T06:19:58.147Z,19.85
2018-09-26T06:22:27.993Z,19.91
2018-09-26T06:27:19.848Z,19.94
2018-09-26T06:29:49.545Z,20.03
2018-09-26T06:32:19.079Z,20.06
2018-09-26T06:34:49.230Z,20.07
2018-09-26T06:37:18.885Z,20.08
2018-09-26T06:39:48.763Z,20.15
2018-09-26T06:42:18.361Z,20.16
2018-09-26T06:44:48.420Z,20.20
2018-09-26T06:47:20.329Z,20.22
2018-09-26T06:49:49.894Z,20.25
2018-09-26T06:52:20.144Z,20.26
2018-09-26T06:54:50.151Z,20.29
2018-09-26T06:57:20.097Z,20.31
2018-09-26T06:59:50.897Z,20.32
2018-09-26T07:02:20.890Z,20.36
2018-09-26T07:04:50.808Z,20.37
2018-09-26T07:07:20.484Z,20.39
2018-09-26T07:09:50.272Z,20.40
2018-09-26T07:12:20.044Z,20.40
2018-09-26T07:14:50.378Z,20.43
2018-09-26T07:17:19.862Z,20.49
2018-09-26T07:19:49.823Z,20.56
2018-09-26T07:22:19.744Z,20.58
2018-09-26T07:24:49.402Z,20.61
2018-09-26T07:27:19.162Z,20.64
2018-09-26T07:29:49.709Z,20.68
2018-09-26T07:32:19.332Z,20.69
2018-09-26T07:34:49.138Z,20.73
2018-09-26T07:37:19.102Z,20.76
2018-09-26T07:39:48.604Z,20.80
2018-09-26T07:42:18.412Z,20.82
2018-09-26T07:44:48.379Z,20.82
2018-09-26T07:47:18.070Z,20.86
2018-09-26T07:49:47.781Z,20.89
2018-09-26T07:52:18.148Z,20.91
2018-09-26T07:54:47.843Z,20.93
2018-09-26T07:57:17.366Z,20.95
2018-09-26T07:59:47.182Z,20.95
2018-09-26T08:02:17.230Z,20.97
2018-09-26T08:04:47.152Z,20.99
2018-09-26T08:07:17.178Z,21.03
2018-09-26T08:09:47.161Z,21.06
2018-09-26T08:12:16.828Z,21.07
2018-09-26T08:14:46.875Z,21.11
2018-09-26T08:17:17.078Z,21.13
2018-09-26T08:19:47.201Z,21.18
2018-09-26T08:22:16.874Z,21.18
2018-09-26T08:24:47.047Z,21.19
2018-09-26T08:27:17.049Z,21.25
2018-09-26T08:29:46.472Z,21.31
2018-09-26T08:34:39.301Z,21.28
2018-09-26T08:37:09.473Z,21.30
2018-09-26T08:39:41.333Z,21.32
2018-09-26T08:42:16.295Z,21.33
2018-09-26T08:44:46.300Z,21.34
2018-09-26T08:47:16.005Z,21.37
2018-09-26T08:49:46.157Z,21.37
2018-09-26T08:52:16.015Z,21.38
2018-09-26T08:54:46.010Z,21.39
2018-09-26T08:57:16.023Z,21.42
2018-09-26T08:59:45.781Z,21.43
2018-09-26T09:02:15.655Z,21.44
2018-09-26T09:04:45.450Z,21.48
2018-09-26T09:07:15.331Z,21.47
2018-09-26T09:09:45.237Z,21.50
2018-09-26T09:12:15.282Z,21.51
2018-09-26T09:14:45.873Z,21.53
2018-09-26T09:17:16.224Z,21.60
2018-09-26T09:19:46.073Z,21.62
2018-09-26T09:22:16.318Z,21.64
2018-09-26T09:24:46.261Z,21.66
2018-09-26T09:27:16.187Z,21.70
2018-09-26T09:29:45.940Z,21.72
2018-09-26T09:32:15.522Z,21.73
2018-09-26T09:34:45.203Z,21.74
2018-09-26T09:37:15.215Z,21.76
2018-09-26T09:39:44.686Z,21.78
2018-09-26T09:42:14.886Z,21.80
2018-09-26T09:44:53.712Z,21.81
2018-09-26T09:47:23.795Z,21.83
2018-09-26T09:49:53.664Z,21.84
2018-09-26T09:52:23.671Z,21.85
2018-09-26T09:54:53.741Z,21.86
2018-09-26T09:57:23.381Z,21.88
2018-09-26T09:59:53.432Z,21.88
2018-09-26T10:02:23.432Z,21.91
2018-09-26T10:04:52.965Z,21.93
2018-09-26T10:07:22.529Z,21.93
2018-09-26T10:09:52.196Z,21.94
2018-09-26T10:12:24.083Z,21.97
2018-09-26T10:17:25.519Z,22.05
2018-09-26T10:19:55.546Z,22.06
2018-09-26T10:22:25.210Z,22.06
2018-09-26T10:24:54.864Z,22.08
2018-09-26T10:27:25.040Z,22.09
2018-09-26T10:29:54.542Z,22.11
2018-09-26T10:32:24.577Z,22.12
2018-09-26T10:34:54.335Z,22.12
2018-09-26T10:37:24.242Z,22.15
2018-09-26T10:39:54.198Z,22.15
2018-09-26T10:42:24.504Z,22.15
2018-09-26T10:44:54.785Z,22.04
2018-09-26T10:47:24.730Z,21.83
2018-09-26T10:49:55.147Z,21.86
2018-09-26T10:52:25.191Z,21.79
2018-09-26T10:54:55.026Z,21.77
2018-09-26T10:57:24.634Z,21.84
2018-09-26T10:59:54.918Z,21.90
2018-09-26T11:02:24.643Z,21.95
2018-09-26T11:04:54.998Z,22.00
2018-09-26T11:07:25.138Z,21.97
2018-09-26T11:09:55.197Z,21.98
2018-09-26T11:12:24.944Z,22.02
2018-09-26T11:14:55.194Z,22.01
2018-09-26T11:17:24.898Z,22.04
2018-09-26T11:19:55.095Z,22.06
2018-09-26T11:22:24.770Z,22.05
2018-09-26T11:24:54.213Z,22.06
2018-09-26T11:27:23.843Z,22.07
2018-09-26T11:29:54.524Z,22.07
2018-09-26T11:32:24.272Z,22.07
2018-09-26T11:34:55.170Z,22.06
2018-09-26T11:37:25.178Z,22.08
2018-09-26T11:39:55.095Z,22.08
2018-09-26T11:42:24.750Z,22.07
2018-09-26T11:44:55.549Z,22.06
2018-09-26T11:47:25.202Z,22.07
2018-09-26T11:49:54.673Z,22.08
2018-09-26T11:52:24.501Z,22.06
2018-09-26T11:54:54.515Z,22.05
2018-09-26T11:57:24.455Z,22.05
2018-09-26T11:59:54.686Z,22.06
2018-09-26T12:02:24.759Z,22.05
2018-09-26T12:04:54.742Z,22.06
2018-09-26T12:07:24.536Z,22.06
2018-09-26T12:09:54.865Z,22.07
2018-09-26T12:12:24.676Z,22.07
2018-09-26T12:14:54.717Z,22.07
2018-09-26T12:17:24.358Z,21.60
2018-09-26T12:19:53.822Z,21.49
2018-09-26T12:22:23.418Z,21.50
2018-09-26T12:24:53.072Z,21.51
2018-09-26T12:27:22.645Z,21.52
2018-09-26T12:29:52.468Z,21.52
2018-09-26T12:32:22.561Z,21.54
2018-09-26T12:34:52.138Z,21.54
2018-09-26T12:37:23.239Z,21.53
2018-09-26T12:39:52.921Z,21.55
2018-09-26T12:42:22.696Z,21.56
2018-09-26T12:44:52.701Z,21.57
2018-09-26T12:47:24.232Z,21.57
2018-09-26T12:49:53.933Z,21.59
2018-09-26T12:52:23.751Z,21.59
2018-09-26T12:54:53.382Z,21.59
2018-09-26T12:57:23.135Z,21.59
2018-09-26T12:59:52.802Z,21.60
2018-09-26T13:02:22.641Z,21.59
2018-09-26T13:04:52.480Z,21.63
2018-09-26T13:07:21.985Z,21.74
2018-09-26T13:09:51.509Z,21.70
2018-09-26T13:12:21.131Z,21.68
2018-09-26T13:14:50.888Z,21.70
2018-09-26T13:17:20.669Z,21.68
2018-09-26T13:19:51.661Z,21.70
2018-09-26T13:22:23.239Z,21.72
2018-09-26T13:24:54.982Z,21.71
2018-09-26T13:27:25.043Z,21.71
2018-09-26T13:29:55.437Z,21.69
2018-09-26T13:32:28.102Z,21.70
2018-09-26T13:34:58.108Z,21.71
2018-09-26T13:37:31.909Z,21.71
2018-09-26T13:40:02.897Z,21.70
2018-09-26T13:42:33.657Z,21.71
2018-09-26T13:45:03.582Z,21.63
2018-09-26T13:47:33.304Z,21.61
2018-09-26T13:50:03.801Z,21.58
2018-09-26T13:52:34.475Z,21.56
2018-09-26T13:55:04.159Z,21.58
2018-09-26T13:57:34.210Z,21.60
2018-09-26T14:00:04.889Z,21.57
2018-09-26T14:02:35.052Z,21.60
2018-09-26T14:05:04.867Z,21.62
2018-09-26T14:07:37.223Z,21.61
2018-09-26T14:10:07.241Z,21.61
2018-09-26T14:12:37.518Z,21.63
2018-09-26T14:15:07.130Z,21.65
2018-09-26T14:17:38.761Z,21.67
2018-09-26T14:20:08.506Z,21.70
2018-09-26T14:22:38.533Z,21.70
2018-09-26T14:25:08.279Z,21.70
2018-09-26T14:27:38.394Z,21.68
2018-09-26T14:30:08.920Z,21.68
2018-09-26T14:32:38.552Z,21.68
2018-09-26T14:35:08.796Z,21.71
2018-09-26T14:37:38.627Z,21.70
2018-09-26T14:40:10.383Z,21.73
2018-09-26T14:42:40.725Z,21.70
2018-09-26T14:45:10.631Z,21.69
2018-09-26T14:47:40.492Z,21.71
2018-09-26T14:50:10.517Z,21.68
2018-09-26T14:52:40.407Z,21.69
2018-09-26T14:55:11.235Z,21.68
2018-09-26T14:57:41.857Z,21.68
2018-09-26T15:00:11.335Z,21.69
2018-09-26T15:02:41.614Z,21.67
2018-09-26T15:05:11.725Z,21.65
2018-09-26T15:07:41.429Z,21.54
2018-09-26T15:10:11.219Z,21.48
2018-09-26T15:12:41.246Z,21.55
2018-09-26T15:15:11.215Z,21.51
2018-09-26T15:17:40.782Z,21.56
2018-09-26T15:20:10.581Z,21.53
2018-09-26T15:22:40.080Z,21.52
2018-09-26T15:25:10.080Z,21.51
2018-09-26T15:27:39.595Z,21.51
2018-09-26T15:30:09.225Z,21.50
2018-09-26T15:32:39.421Z,21.46
2018-09-26T15:35:09.884Z,21.44
2018-09-26T15:37:40.385Z,21.44
2018-09-26T15:40:10.330Z,21.43
2018-09-26T15:42:43.999Z,21.38
2018-09-26T15:45:14.725Z,21.38
2018-09-26T15:47:45.205Z,21.37
2018-09-26T15:50:15.534Z,21.36
2018-09-26T15:52:50.404Z,21.33
2018-09-26T15:55:20.546Z,21.32
2018-09-26T15:57:51.616Z,21.30
2018-09-26T16:00:22.613Z,21.30
2018-09-26T16:02:52.431Z,21.28
2018-09-26T16:05:23.372Z,21.27
2018-09-26T16:07:54.579Z,21.25
2018-09-26T16:10:24.438Z,21.25
2018-09-26T16:12:54.830Z,21.23
2018-09-26T16:15:24.785Z,21.21
2018-09-26T16:18:01.923Z,21.20
2018-09-26T16:20:32.253Z,21.20
2018-09-26T16:23:02.177Z,21.18
2018-09-26T16:25:32.982Z,21.15
2018-09-26T16:28:03.424Z,21.13
2018-09-26T16:30:34.112Z,21.12
2018-09-26T16:33:05.359Z,21.11
2018-09-26T16:35:34.920Z,21.11
2018-09-26T16:38:04.933Z,21.09
2018-09-26T16:40:34.901Z,21.08
2018-09-26T16:43:04.794Z,21.06
2018-09-26T16:45:34.657Z,21.04
2018-09-26T16:48:04.159Z,21.01
2018-09-26T16:50:33.680Z,20.99
2018-09-26T16:53:03.209Z,20.99
2018-09-26T16:55:33.002Z,20.99
2018-09-26T16:58:03.802Z,20.96
2018-09-26T17:00:33.607Z,20.95
2018-09-26T17:03:03.564Z,20.94
2018-09-26T17:05:33.278Z,20.91
2018-09-26T17:08:03.442Z,20.91
2018-09-26T17:10:33.213Z,20.90
2018-09-26T17:13:05.358Z,20.88
2018-09-26T17:15:36.468Z,20.87
2018-09-26T17:18:06.258Z,20.84
2018-09-26T17:20:35.754Z,20.83
2018-09-26T17:23:05.513Z,20.81
2018-09-26T17:25:35.777Z,20.79
2018-09-26T17:28:06.785Z,20.77
2018-09-26T17:30:37.798Z,20.75
2018-09-26T17:33:09.128Z,20.71
2018-09-26T17:35:39.409Z,20.70
2018-09-26T17:38:09.193Z,20.69
2018-09-26T17:40:39.374Z,20.67
2018-09-26T17:43:09.908Z,20.63
2018-09-26T17:45:40.096Z,20.58
2018-09-26T17:48:10.005Z,20.51
2018-09-26T17:50:40.860Z,20.49
2018-09-26T17:53:13.392Z,20.46
2018-09-26T17:55:44.000Z,20.43
2018-09-26T17:58:15.100Z,20.41
2018-09-26T18:00:45.930Z,20.46
2018-09-26T18:03:16.408Z,20.39
2018-09-26T18:05:47.634Z,20.43
2018-09-26T18:08:18.230Z,20.48
2018-09-26T18:10:48.160Z,20.66
2018-09-26T18:13:18.496Z,20.70
2018-09-26T18:15:48.720Z,20.68
2018-09-26T18:18:18.527Z,20.67
2018-09-26T18:20:49.198Z,20.66
2018-09-26T18:23:22.269Z,20.75
2018-09-26T18:25:52.183Z,20.77
2018-09-26T18:28:22.627Z,20.91
2018-09-26T18:30:53.353Z,20.90
2018-09-26T18:33:23.251Z,20.77
2018-09-26T18:35:53.184Z,20.90
2018-09-26T18:38:23.141Z,20.86
2018-09-26T18:40:56.335Z,20.89
2018-09-26T18:43:26.621Z,20.85
2018-09-26T18:45:57.861Z,20.80
2018-09-26T18:48:28.091Z,20.81
2018-09-26T18:50:58.743Z,20.81
2018-09-26T18:53:31.256Z,20.86
2018-09-26T18:56:02.768Z,20.65
2018-09-26T18:58:34.942Z,20.77
2018-09-26T19:01:05.851Z,20.75
2018-09-26T19:03:36.802Z,20.72
2018-09-26T19:06:10.311Z,20.77
2018-09-26T19:08:41.117Z,20.78
2018-09-26T19:11:11.965Z,20.72
2018-09-26T19:13:42.469Z,20.84
2018-09-26T19:16:12.713Z,20.98
2018-09-26T19:18:43.092Z,20.97
2018-09-26T19:21:14.631Z,20.98
2018-09-26T19:23:46.100Z,20.95
2018-09-26T19:26:17.724Z,20.85
2018-09-26T19:28:48.205Z,20.92
2018-09-26T19:31:19.173Z,20.93
2018-09-26T19:33:49.463Z,20.79
2018-09-26T19:36:20.241Z,20.85
2018-09-26T19:38:53.182Z,20.78
2018-09-26T19:41:22.909Z,20.92
2018-09-26T19:43:52.807Z,20.85
2018-09-26T19:46:23.792Z,20.89
2018-09-26T19:48:55.564Z,20.90
2018-09-26T19:51:26.404Z,20.85
2018-09-26T19:53:57.581Z,20.83
2018-09-26T19:56:28.143Z,20.87
2018-09-26T19:58:59.717Z,20.88
2018-09-26T20:01:33.079Z,20.94
2018-09-26T20:04:03.658Z,21.06
2018-09-26T20:06:34.386Z,21.05
2018-09-26T20:09:06.494Z,20.98
2018-09-26T20:11:36.679Z,20.99
2018-09-26T20:14:09.233Z,20.98
2018-09-26T20:16:40.400Z,20.98
2018-09-26T20:19:12.487Z,20.97
2018-09-26T20:21:43.096Z,20.98
2018-09-26T20:24:14.577Z,21.05
2018-09-26T20:26:44.068Z,21.06
2018-09-26T20:29:14.043Z,21.09
2018-09-26T20:31:44.541Z,20.96
2018-09-26T20:34:14.913Z,20.97
2018-09-26T20:36:44.612Z,20.99
2018-09-26T20:39:15.094Z,21.09
2018-09-26T20:41:45.229Z,21.02
2018-09-26T20:44:15.139Z,20.98
2018-09-26T20:46:44.989Z,20.97
2018-09-26T20:49:14.733Z,21.04
2018-09-26T20:51:45.005Z,21.01
2018-09-26T20:54:14.710Z,21.04
2018-09-26T20:56:44.474Z,21.02
2018-09-26T20:59:13.942Z,21.05
2018-09-26T21:01:44.184Z,20.97
2018-09-26T21:04:14.734Z,21.00
2018-09-26T21:06:44.655Z,21.00
2018-09-26T21:09:14.454Z,21.03
2018-09-26T21:11:44.795Z,20.94
2018-09-26T21:14:16.198Z,21.00
2018-09-26T21:16:46.454Z,20.92
2018-09-26T21:19:17.928Z,20.91
2018-09-26T21:21:48.202Z,20.89
2018-09-26T21:24:17.902Z,20.94
2018-09-26T21:26:47.951Z,20.90
2018-09-26T21:29:17.869Z,20.85
2018-09-26T21:31:48.319Z,20.85
2018-09-26T21:34:18.255Z,20.86
2018-09-26T21:36:48.190Z,20.85
2018-09-26T21:39:18.431Z,20.84
2018-09-26T21:41:48.308Z,20.82
2018-09-26T21:44:18.035Z,20.85
2018-09-26T21:46:48.718Z,20.80
2018-09-26T21:49:18.430Z,20.83
2018-09-26T21:51:48.519Z,20.78
2018-09-26T21:54:18.346Z,20.75
2018-09-26T21:56:48.087Z,20.74
2018-09-26T21:59:18.081Z,20.75
2018-09-26T22:01:47.559Z,20.74
2018-09-26T22:04:17.342Z,20.75
2018-09-26T22:06:47.598Z,20.72
2018-09-26T22:09:17.078Z,20.65
2018-09-26T22:11:47.050Z,20.67
2018-09-26T22:14:17.037Z,20.74
2018-09-26T22:16:47.025Z,20.71
2018-09-26T22:19:17.248Z,20.67
2018-09-26T22:21:47.322Z,20.65
2018-09-26T22:24:17.237Z,20.66
2018-09-26T22:26:47.002Z,20.65
2018-09-26T22:29:16.851Z,20.61
2018-09-26T22:31:46.742Z,20.62
2018-09-26T22:34:16.555Z,20.59
2018-09-26T22:36:46.352Z,20.57
2018-09-26T22:39:15.853Z,20.50
2018-09-26T22:41:45.605Z,20.50
2018-09-26T22:44:16.232Z,20.44
2018-09-26T22:46:45.893Z,20.46
2018-09-26T22:49:15.557Z,20.40
2018-09-26T22:51:45.481Z,20.37
2018-09-26T22:54:15.129Z,20.38
2018-09-26T22:56:44.757Z,20.37
2018-09-26T22:59:15.094Z,20.33
2018-09-26T23:01:45.080Z,20.31
2018-09-26T23:04:14.705Z,20.29
2018-09-26T23:06:44.444Z,20.29
2018-09-26T23:09:13.983Z,20.29
2018-09-26T23:11:44.285Z,20.23
2018-09-26T23:14:14.097Z,20.25
2018-09-26T23:16:43.742Z,20.18
2018-09-26T23:19:13.500Z,20.17
2018-09-26T23:21:43.358Z,20.21
2018-09-26T23:24:13.106Z,20.16
2018-09-26T23:26:43.113Z,20.15
2018-09-26T23:29:12.753Z,20.15
2018-09-26T23:31:43.027Z,20.12
2018-09-26T23:34:12.913Z,20.14
2018-09-26T23:36:42.952Z,20.08
2018-09-26T23:39:12.959Z,20.02
2018-09-26T23:41:42.682Z,20.04
2018-09-26T23:44:15.089Z,20.05
2018-09-26T23:46:45.076Z,20.03
2018-09-26T23:49:14.873Z,19.98
2018-09-26T23:51:44.878Z,20.00
2018-09-26T23:54:15.715Z,19.98
2018-09-26T23:56:45.937Z,19.97
2018-09-26T23:59:15.660Z,19.94
